Time;durP1;ratioP1;P1;durP2;ratioP2;P2;SDS_P1;SDS_P2;PMS_P1;PMS_P2;Temp;Humidity;BMP_temperature;BMP_pressure;BME280_temperature;BME280_humidity;BME280_pressure;Samples;Min_cycle;Max_cycle;Signal;HPM_P1;HPM_P2
2023/04/07 00:02:18;;;;;;;34.45;16.42;;;9.20;96.40;;;;;;5836815;24;92961;-82
2023/04/07 00:04:48;;;;;;;35.83;16.17;;;9.10;96.20;;;;;;5839789;24;90967;-82
2023/04/07 00:07:14;;;;;;;36.30;15.32;;;9.10;96.20;;;;;;5863414;23;86640;-82
2023/04/07 00:09:40;;;;;;;32.15;15.93;;;9.10;96.20;;;;;;5913859;23;87296;-82
2023/04/07 00:12:26;;;;;;;32.25;15.25;;;9.10;96.00;;;;;;5846788;24;86921;-82
2023/04/07 00:14:53;;;;;;;32.17;14.18;;;9.10;96.10;;;;;;5819503;24;88939;-82
2023/04/07 00:17:19;;;;;;;32.58;14.75;;;9.10;96.10;;;;;;5776141;24;86906;-81
2023/04/07 00:20:09;;;;;;;36.90;16.10;;;9.10;96.10;;;;;;5821316;24;86103;-81
2023/04/07 00:23:00;;;;;;;29.02;15.43;;;9.10;96.10;;;;;;5729100;24;87224;-82
2023/04/07 00:25:26;;;;;;;28.20;13.60;;;9.10;96.00;;;;;;5716149;24;92533;-82
2023/04/07 00:28:14;;;;;;;28.33;14.43;;;9.00;95.90;;;;;;5699244;24;87957;-83
2023/04/07 00:30:41;;;;;;;28.17;13.85;;;9.00;95.90;;;;;;5682534;24;88499;-81
2023/04/07 00:33:07;;;;;;;27.83;13.50;;;9.00;95.90;;;;;;5675195;24;89789;-82
2023/04/07 00:36:04;;;;;;;27.00;13.88;;;8.90;95.80;;;;;;5652191;25;87375;-83
2023/04/07 00:38:30;;;;;;;27.83;13.70;;;8.90;95.90;;;;;;5671495;24;87249;-81
2023/04/07 00:40:58;;;;;;;25.33;13.43;;;8.90;95.90;;;;;;5689153;24;89477;-81
2023/04/07 00:43:24;;;;;;;28.67;13.15;;;8.90;95.90;;;;;;5699568;24;88894;-80
2023/04/07 00:45:52;;;;;;;24.83;12.45;;;8.80;95.90;;;;;;5676270;24;87820;-83
2023/04/07 00:48:19;;;;;;;25.15;12.95;;;8.80;95.90;;;;;;5680597;24;87078;-82
2023/04/07 00:50:46;;;;;;;24.92;13.00;;;8.80;95.80;;;;;;5762092;24;89520;-82
2023/04/07 00:53:32;;;;;;;25.77;13.48;;;8.80;95.70;;;;;;5764298;24;88025;-82
2023/04/07 00:56:00;;;;;;;23.42;13.02;;;8.70;95.70;;;;;;5780592;24;89348;-82
2023/04/07 00:58:40;;;;;;;26.15;12.90;;;8.70;95.80;;;;;;5778659;24;86862;-82
2023/04/07 01:01:18;;;;;;;28.33;12.93;;;8.70;95.80;;;;;;5881647;23;88159;-81
2023/04/07 01:04:01;;;;;;;25.40;13.27;;;8.70;96.00;;;;;;5883605;24;87751;-82
2023/04/07 01:06:55;;;;;;;28.77;13.03;;;8.60;96.10;;;;;;5902114;23;89470;-82
2023/04/07 01:09:32;;;;;;;28.90;13.70;;;8.60;96.10;;;;;;5916961;23;86450;-82
2023/04/07 01:12:25;;;;;;;24.92;13.35;;;8.60;96.20;;;;;;5894020;23;88824;-82
2023/04/07 01:14:59;;;;;;;26.92;12.50;;;8.60;96.30;;;;;;5920870;23;89665;-82
2023/04/07 01:17:38;;;;;;;31.88;13.65;;;8.60;96.20;;;;;;5921341;23;90094;-83
2023/04/07 01:20:07;;;;;;;27.20;13.55;;;8.70;96.30;;;;;;5920019;23;87866;-83
2023/04/07 01:22:56;;;;;;;29.83;13.50;;;8.70;96.30;;;;;;5918151;23;89157;-82
2023/04/07 01:26:05;;;;;;;30.23;13.48;;;8.70;96.20;;;;;;5917668;23;91312;-81
2023/04/07 01:28:49;;;;;;;31.70;13.98;;;8.70;96.20;;;;;;5894740;23;91543;-82
2023/04/07 01:31:39;;;;;;;28.88;13.50;;;8.70;96.20;;;;;;5870334;24;86922;-81
2023/04/07 01:34:16;;;;;;;29.77;13.68;;;8.70;96.30;;;;;;5889677;23;86581;-82
2023/04/07 01:36:45;;;;;;;31.00;13.45;;;8.70;96.20;;;;;;5889608;23;88435;-83
2023/04/07 01:39:32;;;;;;;32.92;14.10;;;8.70;96.20;;;;;;5868727;23;87770;-83
2023/04/07 01:42:01;;;;;;;40.83;14.85;;;8.60;96.20;;;;;;5877528;23;86823;-82
2023/04/07 01:44:28;;;;;;;31.52;13.75;;;8.60;96.20;;;;;;5823422;24;87082;-82
2023/04/07 01:46:55;;;;;;;29.23;13.60;;;8.60;96.20;;;;;;5820948;23;88759;-82
2023/04/07 01:49:42;;;;;;;31.92;14.32;;;8.60;96.20;;;;;;5797905;24;92170;-81
2023/04/07 01:52:28;;;;;;;33.38;14.93;;;8.60;96.20;;;;;;5836645;23;86770;-82
2023/04/07 01:54:56;;;;;;;33.72;15.05;;;8.60;96.20;;;;;;5838930;23;86914;-82
2023/04/07 01:57:22;;;;;;;33.45;14.77;;;8.60;96.30;;;;;;5833780;24;90321;-81
2023/04/07 01:59:49;;;;;;;31.08;15.52;;;8.60;96.30;;;;;;5833069;24;87939;-82
2023/04/07 02:02:40;;;;;;;38.85;15.93;;;8.60;96.30;;;;;;6133227;22;88769;-82
2023/04/07 02:05:12;;;;;;;34.60;14.73;;;8.60;96.60;;;;;;6211404;22;86962;-81
2023/04/07 02:07:48;;;;;;;32.53;15.10;;;8.50;96.30;;;;;;6211998;22;90706;-82
2023/04/07 02:10:57;;;;;;;39.58;14.38;;;8.50;96.30;;;;;;6149908;22;91256;-82
2023/04/07 02:13:26;;;;;;;35.47;14.48;;;8.50;96.30;;;;;;6079824;22;88777;-82
2023/04/07 02:16:13;;;;;;;28.70;14.38;;;8.50;96.20;;;;;;6005986;23;86746;-83
2023/04/07 02:19:01;;;;;;;31.40;13.60;;;8.50;96.20;;;;;;6020723;23;87465;-81
2023/04/07 02:21:29;;;;;;;32.92;13.95;;;8.40;96.10;;;;;;6027079;23;89512;-82
2023/04/07 02:23:56;;;;;;;36.28;14.95;;;8.40;96.20;;;;;;5964756;23;86601;-83
2023/04/07 02:26:39;;;;;;;37.28;15.13;;;8.40;96.20;;;;;;5926603;23;88135;-82
2023/04/07 02:29:05;;;;;;;;;;;8.40;96.20;;;;;;5974383;23;87634;-83
2023/04/07 02:31:31;;;;;;;31.38;12.95;;;8.40;96.20;;;;;;5978388;23;88244;-83
2023/04/07 02:33:57;;;;;;;39.13;15.02;;;8.40;96.20;;;;;;5962650;23;86664;-82
2023/04/07 02:36:43;;;;;;;41.22;14.48;;;8.40;96.20;;;;;;5970057;23;87473;-84
2023/04/07 02:39:38;;;;;;;37.63;15.90;;;8.40;96.20;;;;;;5944932;23;88100;-81
2023/04/07 02:42:09;;;;;;;38.83;16.65;;;8.40;96.20;;;;;;5947799;23;89715;-81
2023/04/07 03:36:26;;;;;;;50.17;20.38;;;8.50;96.50;;;;;;6168457;22;88806;-84
2023/04/07 03:52:07;;;;;;;50.80;22.95;;;8.40;96.50;;;;;;6196494;22;89447;-83
2023/04/07 04:38:34;;;;;;;65.07;26.63;;;8.20;96.20;;;;;;6204881;22;86556;-82
2023/04/07 04:41:00;;;;;;;66.50;26.67;;;8.10;96.20;;;;;;6208439;22;86250;-84
2023/04/07 04:43:26;;;;;;;58.95;26.08;;;8.00;96.30;;;;;;6209713;22;90181;-82
2023/04/07 04:45:52;;;;;;;67.45;27.30;;;8.00;96.30;;;;;;6209684;22;90418;-84
2023/04/07 04:48:18;;;;;;;59.45;25.92;;;7.90;96.30;;;;;;6176081;22;87970;-82
2023/04/07 04:50:43;;;;;;;73.78;30.23;;;7.90;96.30;;;;;;6152774;22;89942;-81
2023/04/07 04:53:09;;;;;;;66.90;29.23;;;7.90;96.30;;;;;;6141385;22;88993;-82
2023/04/07 04:55:35;;;;;;;63.47;28.13;;;7.90;96.30;;;;;;6146369;22;87836;-83
2023/04/07 04:58:01;;;;;;;63.60;26.00;;;7.90;96.20;;;;;;6147944;22;86683;-82
2023/04/07 05:00:28;;;;;;;71.60;27.35;;;7.90;96.30;;;;;;6144240;22;89636;-80
2023/04/07 05:02:54;;;;;;;65.47;26.98;;;7.80;96.30;;;;;;6118329;23;90900;-82
2023/04/07 05:07:59;;;;;;;63.30;26.70;;;7.80;96.30;;;;;;6193839;22;88041;-84
2023/04/07 05:10:38;;;;;;;62.55;25.60;;;7.80;96.30;;;;;;6154511;22;92226;-85
2023/04/07 05:13:04;;;;;;;55.80;24.52;;;7.80;96.30;;;;;;6146312;22;91438;-84
2023/04/07 05:15:30;;;;;;;66.10;26.55;;;7.70;96.30;;;;;;6145033;22;91410;-84
2023/04/07 05:17:55;;;;;;;59.42;24.95;;;7.70;96.30;;;;;;6135915;22;87064;-84
2023/04/07 05:20:21;;;;;;;59.33;25.25;;;7.70;96.30;;;;;;6127983;22;87397;-80
2023/04/07 05:22:46;;;;;;;55.95;24.20;;;7.70;96.30;;;;;;6130318;22;87257;-82
2023/04/07 05:25:12;;;;;;;51.08;23.15;;;7.60;96.30;;;;;;6127793;23;89778;-85
2023/04/07 05:27:38;;;;;;;56.03;24.75;;;7.60;96.20;;;;;;6114229;23;87142;-79
2023/04/07 05:30:04;;;;;;;56.45;24.70;;;7.50;96.10;;;;;;6125129;23;89288;-84
2023/04/07 05:32:30;;;;;;;55.25;23.00;;;7.50;96.20;;;;;;6126662;23;91682;-82
2023/04/07 05:34:56;;;;;;;59.38;24.50;;;7.40;96.10;;;;;;6126214;22;89086;-82
2023/04/07 05:37:21;;;;;;;50.97;23.38;;;7.40;96.10;;;;;;6128408;23;88606;-79
2023/04/07 05:39:47;;;;;;;67.07;25.20;;;7.30;96.20;;;;;;6125723;23;89191;-81
2023/04/07 05:42:13;;;;;;;69.85;25.02;;;7.30;96.20;;;;;;6128110;23;89969;-85
2023/04/07 05:44:38;;;;;;;53.97;23.08;;;7.30;96.20;;;;;;6132809;22;91497;-85
2023/04/07 05:49:46;;;;;;;54.42;23.25;;;7.30;96.10;;;;;;6182978;22;88519;-80
2023/04/07 05:52:28;;;;;;;47.38;22.25;;;7.30;96.10;;;;;;6183190;22;91004;-82
2023/04/07 05:54:53;;;;;;;45.33;20.00;;;7.30;96.10;;;;;;6182169;22;89257;-85
2023/04/07 05:59:54;;;;;;;55.47;23.42;;;7.30;96.00;;;;;;6208664;22;88759;-83
2023/04/07 06:02:20;;;;;;;57.92;23.80;;;7.30;96.00;;;;;;6217678;22;94203;-81
2023/04/07 06:04:46;;;;;;;57.45;24.33;;;7.40;96.00;;;;;;6245175;22;89280;-81
2023/04/07 06:07:11;;;;;;;53.47;23.65;;;7.40;96.40;;;;;;6180015;22;86685;-83
2023/04/07 06:09:41;;;;;;;59.28;25.00;;;7.40;96.20;;;;;;6156068;22;87794;-87
2023/04/07 06:12:41;;;;;;;66.03;24.90;;;7.50;96.20;;;;;;6064738;23;90695;-81
2023/04/07 06:15:07;;;;;;;58.08;24.10;;;7.60;96.20;;;;;;5973666;23;87640;-81
2023/04/07 06:17:34;;;;;;;63.72;23.27;;;7.60;96.10;;;;;;5966569;23;87071;-83
2023/04/07 06:20:12;;;;;;;55.92;24.45;;;7.70;95.90;;;;;;5971691;23;88607;-86
2023/04/07 06:22:57;;;;;;;63.72;26.05;;;7.70;95.90;;;;;;5921274;23;87215;-78
2023/04/07 06:26:13;;;;;;;54.83;22.50;;;7.80;96.00;;;;;;5863291;23;91012;-86
2023/04/07 06:41:37;;;;;;;67.22;23.48;;;8.00;96.10;;;;;;6178671;22;88545;-79
2023/04/07 06:44:22;;;;;;;57.92;23.42;;;8.00;96.20;;;;;;6211981;22;89887;-83
2023/04/07 06:46:51;;;;;;;71.22;24.20;;;8.00;96.20;;;;;;6222651;22;87953;-81
2023/04/07 06:49:17;;;;;;;58.45;23.63;;;8.00;96.20;;;;;;6193910;22;87302;-82
2023/04/07 06:51:43;;;;;;;61.33;23.73;;;8.10;96.20;;;;;;6219775;22;87221;-82
2023/04/07 06:54:13;;;;;;;57.83;23.17;;;8.10;95.90;;;;;;6219858;22;89700;-83
2023/04/07 06:56:40;;;;;;;60.80;23.63;;;8.10;95.80;;;;;;6220849;22;88343;-84
2023/04/07 06:59:05;;;;;;;64.05;23.92;;;8.20;96.00;;;;;;6221288;22;87197;-82
2023/04/07 07:01:32;;;;;;;54.65;21.17;;;8.30;95.80;;;;;;6221509;22;87524;-81
2023/04/07 07:03:57;;;;;;;52.45;22.02;;;8.30;95.70;;;;;;6222255;22;87171;-81
2023/04/07 07:06:23;;;;;;;58.00;22.00;;;8.40;95.60;;;;;;6223244;22;88747;-82
2023/04/07 07:08:48;;;;;;;54.45;22.13;;;8.40;95.50;;;;;;6221860;22;87109;-81
2023/04/07 07:11:14;;;;;;;57.00;23.40;;;8.50;95.50;;;;;;6222791;22;86576;-82
2023/04/07 07:13:40;;;;;;;58.50;23.00;;;8.50;95.20;;;;;;6193936;22;90284;-82
2023/04/07 07:16:05;;;;;;;51.78;20.67;;;8.40;95.40;;;;;;6220171;22;87441;-81
2023/04/07 07:18:31;;;;;;;47.25;19.10;;;8.40;95.20;;;;;;6218220;22;88576;-84
2023/04/07 07:20:57;;;;;;;48.15;19.48;;;8.40;95.20;;;;;;6218743;22;87431;-81
2023/04/07 07:23:22;;;;;;;52.63;21.15;;;8.50;95.20;;;;;;6220603;22;88844;-80
2023/04/07 07:25:48;;;;;;;53.70;20.23;;;8.50;95.50;;;;;;6225843;22;87786;-81
2023/04/07 07:28:13;;;;;;;51.08;20.25;;;8.50;95.10;;;;;;6222303;22;87314;-80
2023/04/07 07:30:42;;;;;;;55.03;21.80;;;8.50;95.10;;;;;;6215567;22;87424;-80
2023/04/07 07:33:08;;;;;;;44.10;20.50;;;8.60;95.50;;;;;;6214234;22;87338;-80
2023/04/07 07:35:36;;;;;;;48.42;20.13;;;8.70;95.40;;;;;;6190704;22;86691;-82
2023/04/07 07:38:02;;;;;;;44.67;20.33;;;8.80;95.00;;;;;;6191747;22;87463;-81
2023/04/07 07:40:28;;;;;;;42.55;19.63;;;8.90;94.50;;;;;;6218985;22;87403;-81
2023/04/07 07:42:53;;;;;;;40.50;19.23;;;9.00;94.00;;;;;;6218567;22;89210;-82
2023/04/07 07:45:19;;;;;;;37.67;18.67;;;9.10;94.10;;;;;;6219544;22;88366;-82
2023/04/07 07:47:45;;;;;;;44.67;21.27;;;9.20;93.90;;;;;;6218882;22;87370;-82
2023/04/07 07:50:11;;;;;;;41.67;19.70;;;9.20;93.90;;;;;;6218174;22;87502;-82
2023/04/07 07:52:36;;;;;;;32.60;18.88;;;9.30;93.60;;;;;;6219176;22;87768;-83
2023/04/07 07:55:02;;;;;;;40.42;19.27;;;9.40;92.50;;;;;;6220890;22;87413;-81
2023/04/07 07:57:29;;;;;;;38.65;20.38;;;9.60;92.90;;;;;;6221779;22;87153;-83
2023/04/07 07:59:55;;;;;;;34.28;19.05;;;9.70;93.30;;;;;;6195615;22;89583;-83
2023/04/07 08:02:21;;;;;;;26.65;17.33;;;9.80;92.10;;;;;;6222936;22;87188;-83
2023/04/07 08:05:01;;;;;;;31.33;17.52;;;9.80;92.10;;;;;;6226529;22;88258;-82
2023/04/07 08:07:27;;;;;;;26.13;15.32;;;9.90;91.50;;;;;;6222439;22;89068;-82
2023/04/07 08:09:53;;;;;;;27.33;15.82;;;9.80;91.40;;;;;;6224876;22;87423;-87
2023/04/07 08:12:19;;;;;;;31.77;16.08;;;9.80;91.30;;;;;;6210805;22;90369;-80
2023/04/07 08:14:45;;;;;;;26.58;16.38;;;9.80;91.30;;;;;;6140105;22;90223;-79
2023/04/07 08:17:11;;;;;;;22.48;11.70;;;9.90;91.50;;;;;;6124892;22;87318;-81
2023/04/07 08:19:42;;;;;;;22.08;13.25;;;9.90;90.20;;;;;;6139964;22;90307;-81
2023/04/07 08:22:08;;;;;;;21.38;13.30;;;9.90;90.40;;;;;;6138392;22;90418;-82
2023/04/07 08:24:33;;;;;;;17.83;12.10;;;10.00;90.60;;;;;;6133252;22;87581;-78
2023/04/07 08:27:00;;;;;;;16.33;11.30;;;10.10;89.70;;;;;;6134871;22;87078;-81
2023/04/07 08:29:26;;;;;;;23.75;12.93;;;10.10;89.40;;;;;;6160582;22;88170;-80
2023/04/07 08:31:51;;;;;;;20.33;13.00;;;10.20;90.30;;;;;;6156121;22;90261;-81
2023/04/07 08:34:19;;;;;;;19.17;12.55;;;10.20;90.00;;;;;;6145258;22;91247;-81
2023/04/07 08:36:45;;;;;;;21.00;13.27;;;10.20;90.00;;;;;;6129585;22;87443;-78
2023/04/07 08:39:11;;;;;;;20.77;12.77;;;10.20;89.60;;;;;;6166614;22;87333;-80
2023/04/07 08:41:38;;;;;;;22.00;13.70;;;10.20;90.30;;;;;;6154614;22;88903;-79
2023/04/07 08:50:54;;;;;;;28.35;15.60;;;10.60;90.00;;;;;;6157527;22;86678;-79
2023/04/07 08:53:28;;;;;;;19.75;13.23;;;10.80;89.50;;;;;;6155788;22;88638;-79
2023/04/07 08:55:55;;;;;;;20.95;13.85;;;10.80;89.60;;;;;;6130985;22;90040;-79
2023/04/07 08:58:21;;;;;;;23.65;13.85;;;10.90;88.70;;;;;;6130318;22;88503;-78
2023/04/07 09:00:48;;;;;;;26.67;14.00;;;10.90;87.50;;;;;;6157870;22;90084;-79
2023/04/07 09:03:15;;;;;;;23.77;15.70;;;10.90;87.80;;;;;;6133104;22;92074;-81
2023/04/07 09:05:45;;;;;;;23.70;15.25;;;11.20;90.40;;;;;;6157817;22;88393;-79
2023/04/07 09:08:10;;;;;;;22.35;15.43;;;11.40;86.10;;;;;;6129320;22;87610;-79
2023/04/07 09:10:36;;;;;;;19.05;11.57;;;11.40;87.70;;;;;;6131675;22;90388;-80
2023/04/07 09:13:08;;;;;;;19.25;13.20;;;11.40;84.60;;;;;;6158228;22;89700;-79
2023/04/07 09:15:34;;;;;;;18.23;11.77;;;11.40;85.70;;;;;;6156160;22;88866;-80
2023/04/07 09:18:00;;;;;;;15.05;9.75;;;11.50;85.70;;;;;;6137411;22;88836;-81
2023/04/07 09:20:25;;;;;;;19.58;11.30;;;11.50;82.60;;;;;;6175192;22;86869;-81
2023/04/07 09:22:51;;;;;;;15.10;9.60;;;11.60;84.30;;;;;;6170749;22;91440;-81
2023/04/07 09:25:22;;;;;;;15.38;9.85;;;11.50;82.60;;;;;;6176426;22;88002;-81
2023/04/07 09:27:58;;;;;;;13.10;9.68;;;11.50;83.00;;;;;;6137337;22;87546;-80
2023/04/07 09:30:27;;;;;;;14.52;9.05;;;11.60;83.60;;;;;;6147440;22;91124;-81
2023/04/07 09:32:53;;;;;;;15.63;8.93;;;11.70;82.60;;;;;;6120817;23;89244;-81
2023/04/07 09:35:21;;;;;;;12.85;8.27;;;11.70;82.70;;;;;;6149369;23;90230;-81
2023/04/07 09:38:08;;;;;;;12.15;8.45;;;11.70;82.90;;;;;;6146709;22;87391;-78
2023/04/07 09:40:35;;;;;;;15.95;7.78;;;11.90;83.10;;;;;;6115961;22;94657;-76
2023/04/07 09:43:03;;;;;;;13.20;7.57;;;12.10;82.10;;;;;;6082827;23;89360;-76
2023/04/07 09:45:31;;;;;;;12.63;7.65;;;12.30;78.90;;;;;;6085998;23;87981;-76
2023/04/07 09:47:57;;;;;;;13.43;7.82;;;12.20;79.30;;;;;;6085066;23;88509;-76
2023/04/07 09:51:03;;;;;;;12.60;6.75;;;12.10;81.30;;;;;;6059154;23;90258;-78
2023/04/07 09:53:45;;;;;;;16.45;8.32;;;12.10;79.00;;;;;;6031039;23;90195;-76
2023/04/07 09:56:11;;;;;;;12.50;9.18;;;12.10;80.80;;;;;;6055489;23;91525;-75
2023/04/07 09:58:39;;;;;;;21.70;8.90;;;12.10;80.80;;;;;;6031818;23;87542;-76
2023/04/07 10:01:07;;;;;;;13.70;8.02;;;12.20;78.80;;;;;;6054148;23;87503;-76
2023/04/07 10:03:33;;;;;;;13.35;7.53;;;12.10;79.10;;;;;;6054948;23;88101;-76
2023/04/07 10:06:03;;;;;;;14.93;7.53;;;12.10;79.70;;;;;;6054587;23;87710;-78
2023/04/07 10:08:31;;;;;;;10.80;6.30;;;12.20;77.90;;;;;;6052745;23;87896;-77
2023/04/07 10:11:00;;;;;;;6.60;4.38;;;12.20;77.90;;;;;;6055468;23;88674;-77
2023/04/07 10:13:27;;;;;;;5.85;3.97;;;12.20;75.20;;;;;;6036723;23;96434;-76
2023/04/07 10:15:53;;;;;;;6.53;3.50;;;12.30;75.70;;;;;;6083435;23;88660;-76
2023/04/07 10:18:20;;;;;;;6.97;4.10;;;12.20;72.50;;;;;;6078559;23;87821;-78
2023/04/07 10:20:48;;;;;;;9.85;6.47;;;12.00;74.80;;;;;;6040043;23;90456;-76
2023/04/07 10:23:24;;;;;;;15.15;6.93;;;12.00;76.00;;;;;;6082521;23;91566;-75
2023/04/07 10:25:51;;;;;;;9.75;7.03;;;12.00;78.10;;;;;;6082947;23;91364;-75
2023/04/07 10:28:20;;;;;;;13.13;8.07;;;12.00;77.30;;;;;;6056228;23;88137;-78
2023/04/07 10:30:46;;;;;;;12.45;8.80;;;12.00;78.30;;;;;;6057417;23;90090;-75
2023/04/07 10:33:12;;;;;;;12.00;7.28;;;12.20;79.90;;;;;;6056363;23;90499;-75
2023/04/07 10:36:04;;;;;;;14.48;7.30;;;12.40;78.80;;;;;;6112122;22;91306;-76
2023/04/07 10:38:30;;;;;;;13.80;7.97;;;12.30;75.90;;;;;;6115961;22;88593;-76
2023/04/07 10:40:56;;;;;;;9.45;7.30;;;12.30;79.10;;;;;;6116589;22;90493;-75
2023/04/07 10:43:40;;;;;;;11.65;6.82;;;12.40;78.50;;;;;;6115964;22;91271;-75
2023/04/07 10:46:06;;;;;;;7.72;5.43;;;12.50;75.20;;;;;;6116177;22;91632;-75
2023/04/07 10:48:32;;;;;;;10.75;4.55;;;12.50;72.10;;;;;;6142826;22;87553;-76
2023/04/07 10:51:03;;;;;;;10.10;5.60;;;12.70;71.80;;;;;;6142584;22;88861;-76
2023/04/07 10:53:35;;;;;;;9.38;5.60;;;13.00;72.60;;;;;;6117597;22;90779;-75
2023/04/07 10:56:01;;;;;;;9.20;5.82;;;13.00;71.80;;;;;;6143776;22;87314;-74
2023/04/07 10:58:28;;;;;;;9.68;5.05;;;13.00;71.80;;;;;;6119729;22;87936;-76
2023/04/07 11:01:00;;;;;;;9.52;6.07;;;12.70;72.80;;;;;;6115863;22;90475;-75
2023/04/07 11:03:27;;;;;;;8.38;5.38;;;12.70;75.40;;;;;;6115728;22;92247;-75
2023/04/07 11:06:07;;;;;;;6.45;5.03;;;12.80;75.50;;;;;;6115108;22;90274;-75
2023/04/07 11:08:37;;;;;;;8.30;5.72;;;13.10;75.60;;;;;;6115932;22;87556;-76
2023/04/07 11:11:08;;;;;;;11.45;5.70;;;13.20;72.90;;;;;;5992696;22;99668;-76
2023/04/07 11:13:50;;;;;;;9.90;5.43;;;13.40;72.40;;;;;;6141269;22;87548;-76
2023/04/07 11:16:18;;;;;;;15.63;5.72;;;13.40;70.30;;;;;;6143679;22;88442;-75
2023/04/07 11:18:46;;;;;;;8.95;5.05;;;13.40;72.50;;;;;;6118523;22;87920;-75
2023/04/07 11:21:17;;;;;;;8.48;5.93;;;13.50;71.10;;;;;;6142519;22;87292;-77
2023/04/07 11:23:45;;;;;;;8.55;5.40;;;13.50;72.40;;;;;;6144694;22;88185;-77
2023/04/07 11:26:12;;;;;;;7.97;5.20;;;13.50;72.00;;;;;;6145420;22;88410;-77
2023/04/07 11:28:46;;;;;;;7.03;4.70;;;13.50;72.20;;;;;;6144748;22;89036;-76
2023/04/07 11:31:19;;;;;;;8.05;4.53;;;13.60;70.60;;;;;;6118119;22;90616;-76
2023/04/07 11:33:55;;;;;;;8.40;4.05;;;13.70;72.70;;;;;;6144812;22;88508;-76
2023/04/07 11:36:32;;;;;;;8.65;3.47;;;14.10;72.30;;;;;;6117659;22;90956;-76
2023/04/07 11:38:58;;;;;;;7.68;3.85;;;14.80;67.60;;;;;;6143359;22;94447;-76
2023/04/07 11:41:26;;;;;;;7.20;3.15;;;14.90;68.40;;;;;;6143425;22;87100;-76
2023/04/07 11:44:06;;;;;;;4.70;2.83;;;15.20;65.20;;;;;;6145047;22;87667;-75
2023/04/07 11:46:32;;;;;;;5.68;3.30;;;15.20;64.90;;;;;;6117598;22;95386;-76
2023/04/07 11:49:12;;;;;;;6.82;3.15;;;15.00;65.90;;;;;;6117315;22;88213;-75
2023/04/07 11:51:38;;;;;;;10.25;3.33;;;15.00;65.60;;;;;;6117571;22;88448;-77
2023/04/07 11:54:04;;;;;;;7.68;3.10;;;14.70;66.10;;;;;;6116679;22;92082;-76
2023/04/07 11:56:44;;;;;;;6.13;3.22;;;14.60;69.20;;;;;;6143081;22;88742;-75
2023/04/07 11:59:19;;;;;;;6.78;3.60;;;14.40;67.30;;;;;;6142363;22;88058;-76
2023/04/07 12:01:45;;;;;;;7.80;3.50;;;14.00;66.90;;;;;;6142357;22;87532;-75
2023/04/07 12:04:17;;;;;;;6.10;3.50;;;13.80;68.20;;;;;;6116981;22;91120;-76
2023/04/07 12:06:45;;;;;;;6.50;3.90;;;13.80;69.10;;;;;;6079981;23;89517;-76
2023/04/07 12:09:31;;;;;;;6.10;3.45;;;13.70;67.50;;;;;;6021182;23;89056;-77
2023/04/07 12:11:57;;;;;;;8.80;4.70;;;13.90;68.20;;;;;;6022212;23;88017;-76
2023/04/07 12:14:24;;;;;;;12.32;4.55;;;14.00;70.00;;;;;;5997395;23;91601;-76
2023/04/07 12:16:51;;;;;;;9.00;4.10;;;14.20;67.90;;;;;;6020222;23;87535;-75
2023/04/07 12:19:17;;;;;;;7.28;3.70;;;14.30;69.70;;;;;;6021972;23;88452;-75
2023/04/07 12:21:43;;;;;;;10.32;4.50;;;14.50;66.60;;;;;;5997209;23;90655;-76
2023/04/07 12:24:09;;;;;;;7.43;3.60;;;14.50;68.00;;;;;;6020975;23;88674;-76
2023/04/07 12:26:34;;;;;;;5.00;3.05;;;14.30;69.70;;;;;;6021360;23;91941;-75
2023/04/07 12:29:03;;;;;;;9.55;3.50;;;14.40;68.50;;;;;;5997810;23;87661;-75
2023/04/07 12:31:31;;;;;;;8.13;3.22;;;14.20;68.00;;;;;;6023977;23;89369;-77
2023/04/07 12:33:57;;;;;;;13.20;4.00;;;14.00;67.20;;;;;;6023370;23;88232;-76
2023/04/07 12:36:24;;;;;;;7.03;4.40;;;13.90;68.40;;;;;;5999863;23;91303;-75
2023/04/07 12:38:50;;;;;;;8.07;4.57;;;13.80;68.20;;;;;;6049612;23;87822;-76
2023/04/07 12:41:16;;;;;;;10.55;4.50;;;13.70;67.90;;;;;;6110964;22;90440;-76
2023/04/07 12:43:41;;;;;;;6.90;3.38;;;13.60;70.60;;;;;;6118003;22;92223;-76
2023/04/07 12:46:07;;;;;;;7.97;4.60;;;13.60;69.10;;;;;;6117200;22;92043;-76
2023/04/07 12:48:33;;;;;;;9.50;4.03;;;13.50;68.40;;;;;;6143582;22;87787;-75
2023/04/07 12:51:00;;;;;;;6.60;4.70;;;13.50;69.60;;;;;;6117097;22;90154;-77
2023/04/07 12:53:26;;;;;;;11.13;6.10;;;13.50;69.40;;;;;;6117377;22;91750;-76
2023/04/07 12:55:52;;;;;;;13.48;6.88;;;13.40;68.90;;;;;;6143978;22;87803;-74
2023/04/07 12:58:18;;;;;;;13.18;6.30;;;13.30;70.00;;;;;;6143268;22;87698;-76
2023/04/07 13:00:45;;;;;;;10.65;6.03;;;13.20;70.70;;;;;;6143060;22;87771;-75
2023/04/07 13:03:11;;;;;;;15.43;7.22;;;13.10;71.90;;;;;;6115660;22;90926;-75
2023/04/07 13:05:37;;;;;;;10.23;6.22;;;13.20;72.30;;;;;;6142821;22;87851;-74
2023/04/07 13:08:03;;;;;;;12.57;6.60;;;13.10;72.80;;;;;;6116776;22;88610;-75
2023/04/07 13:10:29;;;;;;;12.35;5.78;;;13.00;73.90;;;;;;6080626;23;89913;-78
2023/04/07 13:12:54;;;;;;;17.10;5.75;;;13.00;73.30;;;;;;6057109;23;91204;-76
2023/04/07 13:15:20;;;;;;;9.18;4.60;;;13.00;72.10;;;;;;6055501;23;91509;-75
2023/04/07 13:17:46;;;;;;;8.35;4.47;;;13.00;73.60;;;;;;6059694;23;87700;-77
2023/04/07 13:20:12;;;;;;;14.75;5.22;;;13.10;74.30;;;;;;6061084;23;90395;-76
2023/04/07 13:22:37;;;;;;;10.82;5.05;;;13.20;72.30;;;;;;6061436;23;91588;-75
2023/04/07 13:25:04;;;;;;;7.38;4.30;;;13.20;72.20;;;;;;6085996;23;86936;-75
2023/04/07 13:27:29;;;;;;;12.20;3.72;;;13.20;72.10;;;;;;6060008;23;87961;-75
2023/04/07 13:29:55;;;;;;;6.65;2.75;;;13.20;72.00;;;;;;6056886;23;90239;-74
2023/04/07 13:32:21;;;;;;;8.05;2.80;;;13.30;72.80;;;;;;6080056;23;89141;-75
2023/04/07 13:34:46;;;;;;;7.70;2.40;;;13.40;70.20;;;;;;6057304;23;91812;-74
2023/04/07 13:37:12;;;;;;;7.55;3.00;;;13.40;70.70;;;;;;6055598;23;88245;-74
2023/04/07 13:39:38;;;;;;;7.53;2.55;;;13.30;69.80;;;;;;6056429;23;89472;-75
2023/04/07 13:42:04;;;;;;;4.40;2.78;;;13.20;71.60;;;;;;6099675;22;91692;-75
2023/04/07 13:44:30;;;;;;;7.53;2.72;;;13.20;69.90;;;;;;6143392;22;88302;-74
2023/04/07 13:46:56;;;;;;;4.82;2.38;;;13.40;71.40;;;;;;6118567;22;87893;-75
2023/04/07 13:49:22;;;;;;;7.25;2.47;;;13.40;69.20;;;;;;6143369;22;86905;-75
2023/04/07 13:51:48;;;;;;;6.10;1.83;;;13.50;70.40;;;;;;6143872;22;88658;-75
2023/04/07 13:54:15;;;;;;;6.78;2.95;;;13.60;69.00;;;;;;6049675;23;90060;-75
2023/04/07 13:56:41;;;;;;;6.28;2.47;;;13.70;67.90;;;;;;6050433;23;88306;-76
2023/04/07 13:59:07;;;;;;;4.05;1.60;;;13.60;68.20;;;;;;6025667;23;90374;-77
2023/04/07 14:01:34;;;;;;;6.03;1.70;;;13.60;67.80;;;;;;6027399;23;91328;-75
2023/04/07 14:04:03;;;;;;;6.43;2.20;;;13.50;66.10;;;;;;6050847;23;87735;-75
2023/04/07 14:06:30;;;;;;;8.27;2.72;;;13.50;68.50;;;;;;6050744;23;87337;-75
2023/04/07 14:08:56;;;;;;;7.15;2.25;;;13.60;69.70;;;;;;6049419;23;87764;-75
2023/04/07 14:11:22;;;;;;;8.35;2.67;;;13.60;68.80;;;;;;6048330;23;88171;-75
2023/04/07 14:13:48;;;;;;;5.57;2.80;;;13.60;68.10;;;;;;6049160;23;88775;-75
2023/04/07 14:16:14;;;;;;;5.47;2.03;;;13.60;67.80;;;;;;6026543;23;87962;-75
2023/04/07 14:18:40;;;;;;;7.95;2.08;;;13.50;67.00;;;;;;6025969;23;90906;-74
2023/04/07 14:21:06;;;;;;;6.45;1.73;;;13.40;67.60;;;;;;6049268;23;88572;-73
2023/04/07 14:23:31;;;;;;;7.68;3.00;;;13.30;69.00;;;;;;6049651;23;88406;-75
2023/04/07 14:25:58;;;;;;;8.55;2.22;;;13.30;68.00;;;;;;6095094;22;87663;-72
2023/04/07 14:28:24;;;;;;;7.50;3.15;;;13.30;68.80;;;;;;6079003;23;93553;-72
2023/04/07 14:30:50;;;;;;;6.55;1.80;;;13.50;69.00;;;;;;6078414;23;88579;-72
2023/04/07 14:33:18;;;;;;;5.40;1.63;;;13.60;67.60;;;;;;6078023;23;88046;-72
2023/04/07 14:35:44;;;;;;;6.68;1.30;;;13.70;67.20;;;;;;6079580;23;88270;-76
2023/04/07 14:38:10;;;;;;;5.60;1.90;;;13.70;66.50;;;;;;6053644;23;90113;-73
2023/04/07 14:40:36;;;;;;;8.40;2.15;;;13.60;67.00;;;;;;6055031;23;90210;-72
2023/04/07 14:43:02;;;;;;;6.30;2.03;;;13.70;65.70;;;;;;6078280;23;88222;-73
2023/04/07 14:45:28;;;;;;;6.25;1.80;;;13.70;67.30;;;;;;6053193;23;89114;-75
2023/04/07 14:47:54;;;;;;;5.78;1.80;;;13.70;67.60;;;;;;6079022;23;87532;-76
2023/04/07 14:50:20;;;;;;;5.13;1.85;;;13.60;65.50;;;;;;6077830;23;88544;-73
2023/04/07 14:52:45;;;;;;;3.97;1.58;;;13.60;66.60;;;;;;6078284;23;88148;-76
2023/04/07 14:55:11;;;;;;;10.23;2.13;;;13.60;68.00;;;;;;6080464;23;87998;-73
2023/04/07 14:57:37;;;;;;;6.07;2.10;;;13.60;68.40;;;;;;6054483;23;90048;-73
2023/04/07 15:00:07;;;;;;;9.00;2.35;;;13.80;69.70;;;;;;6126539;22;88574;-74
2023/04/07 15:02:34;;;;;;;7.38;2.65;;;13.80;69.20;;;;;;6115998;22;90207;-73
2023/04/07 15:05:00;;;;;;;10.70;2.90;;;13.70;67.70;;;;;;6141893;22;87937;-73
2023/04/07 15:07:25;;;;;;;8.65;2.30;;;13.70;67.30;;;;;;6142408;22;87322;-73
2023/04/07 15:09:51;;;;;;;6.20;1.85;;;13.90;68.90;;;;;;6115019;22;90906;-74
2023/04/07 15:12:17;;;;;;;4.35;1.50;;;13.90;67.20;;;;;;6142250;22;89055;-74